Eleftherios Venizelos International Airport

LGAV | ATH

Athens , Attica , Greece

Wednesday, December 11th, 2019 | 18:04

Weather

LGAV 111550Z 11003KT 9999 FEW025 BKN070 13/08 Q1007 NOSIG

Charts

No Charts Available

Gates

204 Available

Runways

2 Available

Events

No events for this airport


New event